createdAt,value
2023-01-06T00:00:09.303Z,97.82
2023-01-06T00:01:09.300Z,97.62
2023-01-06T00:02:09.300Z,97.62
2023-01-06T00:03:09.275Z,97.82
2023-01-06T00:04:09.248Z,97.92
2023-01-06T00:05:09.272Z,97.41
2023-01-06T00:06:09.240Z,97.82
2023-01-06T00:07:09.213Z,97.92
2023-01-06T00:08:09.202Z,97.92
2023-01-06T00:09:09.322Z,97.72
2023-01-06T00:10:09.186Z,97.92
2023-01-06T00:11:09.169Z,97.62
2023-01-06T00:12:09.177Z,97.72
2023-01-06T00:13:09.144Z,97.92
2023-01-06T00:14:09.137Z,97.52
2023-01-06T00:15:09.131Z,97.41
2023-01-06T00:16:09.203Z,97.41
2023-01-06T00:17:09.109Z,97.31
2023-01-06T00:18:09.085Z,97.62
2023-01-06T00:19:09.086Z,97.82
2023-01-06T00:20:09.086Z,97.62
2023-01-06T00:21:09.055Z,97.62
2023-01-06T00:22:09.039Z,97.52
2023-01-06T00:23:09.030Z,97.62
2023-01-06T00:24:09.029Z,97.36
2023-01-06T00:25:09.028Z,97.21
2023-01-06T00:26:09.018Z,97.21
2023-01-06T00:27:08.994Z,97.41
2023-01-06T00:28:08.970Z,97.72
2023-01-06T00:29:08.962Z,97.62
2023-01-06T00:30:08.971Z,97.41
2023-01-06T00:31:09.022Z,97.41
2023-01-06T00:32:08.937Z,97.41
2023-01-06T00:33:08.914Z,97.36
2023-01-06T00:34:08.911Z,97.31
2023-01-06T00:35:08.897Z,97.62
2023-01-06T00:36:08.878Z,97.21
2023-01-06T00:37:08.881Z,97.41
2023-01-06T00:38:08.863Z,97.52
2023-01-06T00:39:08.851Z,97.46
2023-01-06T00:40:08.852Z,98.33
2023-01-06T00:41:08.951Z,98.54
2023-01-06T00:42:08.825Z,98.33
2023-01-06T00:43:08.805Z,98.28
2023-01-06T00:44:08.794Z,98.38
2023-01-06T00:45:08.792Z,98.24
2023-01-06T00:46:08.789Z,98.24
2023-01-06T00:47:08.771Z,98.24
2023-01-06T00:48:08.761Z,98.38
2023-01-06T00:49:08.752Z,98.33
2023-01-06T00:50:08.728Z,98.44
2023-01-06T00:51:08.715Z,98.44
2023-01-06T00:52:08.704Z,98.54
2023-01-06T00:53:08.717Z,98.44
2023-01-06T00:54:08.699Z,98.33
2023-01-06T00:55:08.671Z,98.24
2023-01-06T00:56:08.662Z,98.44
2023-01-06T00:57:08.763Z,98.33
2023-01-06T00:58:08.643Z,98.03
2023-01-06T00:59:08.636Z,98.03
2023-01-06T01:00:08.609Z,98.03
2023-01-06T01:01:08.780Z,98.24
2023-01-06T01:02:08.736Z,98.13
2023-01-06T01:03:08.625Z,98.03
2023-01-06T01:04:08.561Z,98.03
2023-01-06T01:05:08.567Z,98.03
2023-01-06T01:06:08.542Z,97.92
2023-01-06T01:07:08.545Z,98.24
2023-01-06T01:08:08.521Z,98.03
2023-01-06T01:09:08.526Z,98.24
2023-01-06T01:10:08.527Z,98.24
2023-01-06T01:11:08.492Z,98.13
2023-01-06T01:12:08.476Z,98.44
2023-01-06T01:13:08.580Z,97.97
2023-01-06T01:14:08.450Z,98.03
2023-01-06T01:15:08.458Z,98.03
2023-01-06T01:16:08.515Z,98.03
2023-01-06T01:17:08.433Z,98.03
2023-01-06T01:18:08.429Z,98.13
2023-01-06T01:19:08.425Z,97.92
2023-01-06T01:20:08.398Z,98.18
2023-01-06T01:21:08.393Z,98.13
2023-01-06T01:22:08.365Z,98.03
2023-01-06T01:23:08.353Z,98.33
2023-01-06T01:24:08.340Z,98.24
2023-01-06T01:25:08.345Z,98.24
2023-01-06T01:26:08.338Z,98.03
2023-01-06T01:27:08.317Z,97.92
2023-01-06T01:28:08.318Z,98.13
2023-01-06T01:29:08.401Z,98.44
2023-01-06T01:30:08.284Z,98.03
2023-01-06T01:31:08.326Z,98.03
2023-01-06T01:32:08.259Z,98.03
2023-01-06T01:33:08.243Z,98.03
2023-01-06T01:34:08.225Z,98.18
2023-01-06T01:35:08.217Z,98.03
2023-01-06T01:36:08.222Z,98.13
2023-01-06T01:37:08.209Z,98.13
2023-01-06T01:38:08.180Z,98.44
2023-01-06T01:39:08.188Z,98.44
2023-01-06T01:40:08.161Z,98.44
2023-01-06T01:41:08.169Z,98.13
2023-01-06T01:42:08.134Z,98.44
2023-01-06T01:43:08.151Z,97.92
2023-01-06T01:44:08.111Z,98.44
2023-01-06T01:45:08.220Z,98.24
2023-01-06T01:46:08.139Z,98.54
2023-01-06T01:47:08.098Z,98.33
2023-01-06T01:48:08.078Z,98.33
2023-01-06T01:49:08.060Z,98.24
2023-01-06T01:50:08.053Z,97.92
2023-01-06T01:51:08.037Z,97.31
2023-01-06T01:52:08.046Z,97.52
2023-01-06T01:53:08.019Z,97.52
2023-01-06T01:54:08.001Z,97.41
2023-01-06T01:55:08.054Z,97.52
2023-01-06T01:56:07.982Z,97.52
2023-01-06T01:57:07.972Z,97.52
2023-01-06T01:58:07.968Z,97.52
2023-01-06T01:59:07.948Z,97.41
2023-01-06T02:00:07.943Z,97.31
2023-01-06T02:01:08.177Z,97.41
2023-01-06T02:02:08.041Z,97.41
2023-01-06T02:03:07.992Z,97.31
2023-01-06T02:04:07.892Z,97.72
2023-01-06T02:05:07.893Z,97.00
2023-01-06T02:06:07.867Z,97.31
2023-01-06T02:07:07.859Z,97.21
2023-01-06T02:08:07.858Z,97.21
2023-01-06T02:09:07.873Z,97.21
2023-01-06T02:10:07.818Z,97.62
2023-01-06T02:11:07.830Z,97.72
2023-01-06T02:12:07.827Z,97.92
2023-01-06T02:13:07.790Z,97.88
2023-01-06T02:14:07.783Z,97.47
2023-01-06T02:15:07.771Z,97.21
2023-01-06T02:16:07.853Z,97.62
2023-01-06T02:17:07.857Z,97.78
2023-01-06T02:18:07.735Z,97.06
2023-01-06T02:19:07.737Z,97.21
2023-01-06T02:20:07.704Z,97.16
2023-01-06T02:21:07.695Z,96.96
2023-01-06T02:22:07.693Z,96.80
2023-01-06T02:23:07.682Z,96.91
2023-01-06T02:24:07.675Z,96.55
2023-01-06T02:25:07.655Z,96.34
2023-01-06T02:26:07.642Z,97.21
2023-01-06T02:27:07.655Z,96.86
2023-01-06T02:28:07.613Z,96.75
2023-01-06T02:29:07.632Z,97.06
2023-01-06T02:30:07.598Z,97.21
2023-01-06T02:31:07.618Z,96.75
2023-01-06T02:32:07.585Z,97.16
2023-01-06T02:33:07.682Z,96.96
2023-01-06T02:34:07.561Z,97.06
2023-01-06T02:35:07.581Z,97.16
2023-01-06T02:36:07.528Z,96.66
2023-01-06T02:37:07.535Z,96.66
2023-01-06T02:38:07.508Z,96.86
2023-01-06T02:39:07.520Z,96.45
2023-01-06T02:40:07.519Z,96.66
2023-01-06T02:41:07.487Z,96.86
2023-01-06T02:42:07.475Z,96.66
2023-01-06T02:43:07.468Z,96.49
2023-01-06T02:44:07.439Z,97.00
2023-01-06T02:45:14.552Z,96.55
2023-01-06T02:46:07.482Z,96.66
2023-01-06T02:47:07.410Z,96.45
2023-01-06T02:48:07.419Z,96.86
2023-01-06T02:49:07.492Z,96.66
2023-01-06T02:50:07.381Z,96.55
2023-01-06T02:51:07.371Z,96.14
2023-01-06T02:52:07.345Z,95.84
2023-01-06T02:53:07.357Z,96.14
2023-01-06T02:54:07.323Z,96.08
2023-01-06T02:55:07.323Z,96.04
2023-01-06T02:56:07.323Z,95.88
2023-01-06T02:57:07.325Z,95.88
2023-01-06T02:58:07.296Z,96.08
2023-01-06T02:59:07.283Z,96.14
2023-01-06T03:00:07.259Z,96.25
2023-01-06T03:01:07.310Z,95.73
2023-01-06T03:02:07.432Z,95.53
2023-01-06T03:03:07.261Z,95.63
2023-01-06T03:04:07.217Z,95.88
2023-01-06T03:05:07.315Z,95.63
2023-01-06T03:06:07.201Z,95.43
2023-01-06T03:07:07.187Z,95.43
2023-01-06T03:08:07.167Z,95.22
2023-01-06T03:09:07.180Z,95.12
2023-01-06T03:10:07.146Z,95.22
2023-01-06T03:11:07.137Z,95.47
2023-01-06T03:12:07.169Z,95.63
2023-01-06T03:13:07.154Z,95.73
2023-01-06T03:14:07.105Z,95.02
2023-01-06T03:15:07.127Z,95.22
2023-01-06T03:16:07.191Z,95.12
2023-01-06T03:17:07.083Z,94.60
2023-01-06T03:18:07.060Z,94.40
2023-01-06T03:19:07.054Z,94.92
2023-01-06T03:20:07.073Z,94.81
2023-01-06T03:21:07.059Z,94.60
2023-01-06T03:22:07.011Z,94.92
2023-01-06T03:23:06.998Z,95.02
2023-01-06T03:24:07.018Z,94.60
2023-01-06T03:25:06.973Z,94.92
2023-01-06T03:26:07.014Z,94.92
2023-01-06T03:27:06.954Z,94.51
2023-01-06T03:28:06.943Z,94.30
2023-01-06T03:29:06.934Z,94.92
2023-01-06T03:30:06.953Z,95.53
2023-01-06T03:31:06.967Z,94.40
2023-01-06T03:32:06.899Z,94.40
2023-01-06T03:33:08.365Z,94.92
2023-01-06T03:34:06.874Z,95.32
2023-01-06T03:35:06.873Z,95.37
2023-01-06T03:36:06.852Z,95.12
2023-01-06T03:37:06.960Z,95.32
2023-01-06T03:38:06.832Z,95.32
2023-01-06T03:39:06.831Z,95.32
2023-01-06T03:40:06.817Z,95.22
2023-01-06T03:41:06.800Z,95.63
2023-01-06T03:42:06.810Z,95.32
2023-01-06T03:43:06.794Z,95.02
2023-01-06T03:44:06.760Z,95.43
2023-01-06T03:45:06.755Z,95.02
2023-01-06T03:46:06.748Z,95.02
2023-01-06T03:47:06.738Z,95.37
2023-01-06T03:48:06.718Z,95.53
2023-01-06T03:49:06.759Z,95.67
2023-01-06T03:50:06.694Z,95.63
2023-01-06T03:51:06.693Z,96.08
2023-01-06T03:52:06.674Z,96.04
2023-01-06T03:53:06.789Z,95.98
2023-01-06T03:54:06.660Z,95.88
2023-01-06T03:55:06.641Z,96.19
2023-01-06T03:56:06.650Z,96.49
2023-01-06T03:57:06.630Z,97.21
2023-01-06T03:58:06.628Z,97.00
2023-01-06T03:59:06.603Z,96.80
2023-01-06T04:00:06.576Z,96.91
2023-01-06T04:01:06.783Z,96.84
2023-01-06T04:02:06.567Z,96.91
2023-01-06T04:03:06.556Z,97.21
2023-01-06T04:04:06.617Z,97.62
2023-01-06T04:05:06.553Z,97.56
2023-01-06T04:06:06.511Z,97.56
2023-01-06T04:07:06.519Z,97.56
2023-01-06T04:08:06.495Z,97.36
2023-01-06T04:09:06.593Z,97.82
2023-01-06T04:10:06.467Z,97.15
2023-01-06T04:11:06.491Z,97.05
2023-01-06T04:12:06.452Z,97.31
2023-01-06T04:13:06.475Z,97.46
2023-01-06T04:14:06.432Z,96.54
2023-01-06T04:15:06.413Z,97.05
2023-01-06T04:16:06.432Z,97.31
2023-01-06T04:17:06.407Z,97.05
2023-01-06T04:18:06.414Z,97.05
2023-01-06T04:19:06.415Z,97.21
2023-01-06T04:20:06.360Z,96.64
2023-01-06T04:21:06.344Z,96.23
2023-01-06T04:22:06.335Z,96.13
2023-01-06T04:23:06.316Z,95.98
2023-01-06T04:24:06.313Z,96.03
2023-01-06T04:25:06.417Z,96.13
2023-01-06T04:26:06.302Z,96.19
2023-01-06T04:27:06.282Z,95.21
2023-01-06T04:28:06.284Z,95.37
2023-01-06T04:29:06.262Z,95.21
2023-01-06T04:30:06.263Z,94.34
2023-01-06T04:31:06.323Z,94.96
2023-01-06T04:32:06.221Z,94.75
2023-01-06T04:33:06.206Z,94.24
2023-01-06T04:34:06.230Z,94.14
2023-01-06T04:35:06.186Z,94.34
2023-01-06T04:36:06.196Z,94.04
2023-01-06T04:37:06.169Z,93.73
2023-01-06T04:38:06.155Z,94.04
2023-01-06T04:39:06.141Z,93.73
2023-01-06T04:40:06.167Z,93.73
2023-01-06T04:41:06.227Z,94.14
2023-01-06T04:42:06.111Z,93.43
2023-01-06T04:43:06.098Z,93.73
2023-01-06T04:44:06.099Z,93.84
2023-01-06T04:45:06.114Z,93.22
2023-01-06T04:46:06.166Z,93.52
2023-01-06T04:47:06.043Z,93.32
2023-01-06T04:48:06.079Z,93.52
2023-01-06T04:49:06.041Z,93.32
2023-01-06T04:50:06.028Z,93.32
2023-01-06T04:51:06.005Z,93.73
2023-01-06T04:52:05.997Z,92.91
2023-01-06T04:53:06.007Z,92.81
2023-01-06T04:54:05.977Z,92.60
2023-01-06T04:55:05.975Z,92.60
2023-01-06T04:56:05.966Z,92.40
2023-01-06T04:57:06.072Z,92.50
2023-01-06T04:58:05.931Z,92.40
2023-01-06T04:59:05.914Z,92.60
2023-01-06T05:00:05.916Z,92.10
2023-01-06T05:01:06.053Z,91.85
2023-01-06T05:02:06.048Z,91.78
2023-01-06T05:03:05.875Z,91.85
2023-01-06T05:04:05.918Z,91.27
2023-01-06T05:05:05.851Z,91.33
2023-01-06T05:06:05.839Z,91.38
2023-01-06T05:07:05.835Z,91.69
2023-01-06T05:08:05.817Z,91.58
2023-01-06T05:09:05.836Z,91.58
2023-01-06T05:10:05.800Z,91.78
2023-01-06T05:11:05.787Z,91.48
2023-01-06T05:12:05.784Z,91.17
2023-01-06T05:13:05.879Z,90.86
2023-01-06T05:14:05.765Z,90.66
2023-01-06T05:15:05.732Z,90.82
2023-01-06T05:16:05.783Z,90.41
2023-01-06T05:17:05.714Z,90.72
2023-01-06T05:18:05.713Z,90.31
2023-01-06T05:19:05.701Z,90.21
2023-01-06T05:20:05.678Z,90.41
2023-01-06T05:21:05.662Z,90.52
2023-01-06T05:22:05.714Z,90.41
2023-01-06T05:23:05.645Z,90.41
2023-01-06T05:24:05.637Z,90.00
2023-01-06T05:25:05.646Z,90.00
2023-01-06T05:26:05.615Z,90.21
2023-01-06T05:27:05.601Z,90.62
2023-01-06T05:28:05.603Z,90.41
2023-01-06T05:29:05.707Z,90.41
2023-01-06T05:30:05.567Z,90.31
2023-01-06T05:31:05.582Z,90.31
2023-01-06T05:32:05.572Z,90.21
2023-01-06T05:33:05.537Z,90.41
2023-01-06T05:34:05.526Z,90.11
2023-01-06T05:35:05.515Z,90.00
2023-01-06T05:36:05.500Z,90.00
2023-01-06T05:37:05.503Z,90.62
2023-01-06T05:38:05.487Z,90.45
2023-01-06T05:39:05.468Z,90.25
2023-01-06T05:40:05.483Z,90.21
2023-01-06T05:41:05.443Z,90.41
2023-01-06T05:42:05.443Z,90.11
2023-01-06T05:43:05.437Z,90.31
2023-01-06T05:44:05.416Z,90.66
2023-01-06T05:45:05.521Z,90.86
2023-01-06T05:46:05.487Z,90.77
2023-01-06T05:47:05.377Z,90.25
2023-01-06T05:48:05.382Z,90.62
2023-01-06T05:49:05.356Z,90.66
2023-01-06T05:50:05.356Z,90.45
2023-01-06T05:51:05.335Z,90.52
2023-01-06T05:52:05.329Z,90.36
2023-01-06T05:53:05.352Z,90.86
2023-01-06T05:54:05.310Z,90.72
2023-01-06T05:55:05.288Z,90.15
2023-01-06T05:56:05.285Z,90.11
2023-01-06T05:57:05.265Z,90.25
2023-01-06T05:58:05.312Z,90.31
2023-01-06T05:59:05.259Z,90.41
2023-01-06T06:00:05.232Z,90.45
2023-01-06T06:01:05.425Z,90.77
2023-01-06T06:02:05.225Z,90.52
2023-01-06T06:03:05.203Z,90.86
2023-01-06T06:04:05.266Z,90.77
2023-01-06T06:05:05.163Z,91.13
2023-01-06T06:06:05.161Z,90.97
2023-01-06T06:07:05.143Z,91.13
2023-01-06T06:08:05.145Z,91.54
2023-01-06T06:09:05.132Z,91.58
2023-01-06T06:10:05.142Z,91.58
2023-01-06T06:11:05.104Z,91.69
2023-01-06T06:12:05.094Z,91.58
2023-01-06T06:13:05.082Z,91.48
2023-01-06T06:14:05.070Z,91.17
2023-01-06T06:15:05.101Z,92.15
2023-01-06T06:16:05.325Z,92.15
2023-01-06T06:17:05.054Z,91.58
2023-01-06T06:18:05.048Z,91.78
2023-01-06T06:19:05.022Z,91.74
2023-01-06T06:20:05.005Z,91.78
2023-01-06T06:21:04.991Z,91.58
2023-01-06T06:22:05.003Z,91.78
2023-01-06T06:23:04.999Z,92.19
2023-01-06T06:24:04.969Z,91.95
2023-01-06T06:25:04.948Z,91.78
2023-01-06T06:26:04.949Z,92.05
2023-01-06T06:27:04.943Z,92.60
2023-01-06T06:28:04.928Z,92.40
2023-01-06T06:29:04.914Z,92.50
2023-01-06T06:30:04.890Z,92.40
2023-01-06T06:31:04.902Z,92.60
2023-01-06T06:32:04.887Z,92.71
2023-01-06T06:33:04.975Z,92.40
2023-01-06T06:34:04.879Z,92.46
2023-01-06T06:35:04.914Z,92.25
2023-01-06T06:36:04.824Z,92.10
2023-01-06T06:37:04.819Z,91.78
2023-01-06T06:38:04.813Z,91.58
2023-01-06T06:39:04.803Z,91.99
2023-01-06T06:40:04.795Z,91.89
2023-01-06T06:41:04.773Z,91.95
2023-01-06T06:42:04.764Z,92.19
2023-01-06T06:43:04.747Z,92.19
2023-01-06T06:44:04.733Z,91.44
2023-01-06T06:45:04.745Z,91.44
2023-01-06T06:46:04.782Z,91.54
2023-01-06T06:47:04.695Z,91.33
2023-01-06T06:48:04.703Z,91.13
2023-01-06T06:49:04.796Z,91.54
2023-01-06T06:50:04.665Z,91.13
2023-01-06T06:51:04.682Z,91.44
2023-01-06T06:52:04.652Z,91.54
2023-01-06T06:53:04.644Z,91.54
2023-01-06T06:54:04.632Z,91.33
2023-01-06T06:55:04.612Z,90.82
2023-01-06T06:56:04.607Z,91.03
2023-01-06T06:57:04.583Z,90.52
2023-01-06T06:58:04.613Z,90.72
2023-01-06T06:59:04.574Z,90.92
2023-01-06T07:00:04.559Z,90.97
2023-01-06T07:01:04.782Z,91.33
2023-01-06T07:02:04.744Z,91.54
2023-01-06T07:03:04.519Z,91.33
2023-01-06T07:04:04.648Z,90.72
2023-01-06T07:05:04.620Z,90.92
2023-01-06T07:06:04.486Z,91.33
2023-01-06T07:07:04.471Z,91.33
2023-01-06T07:08:04.465Z,91.54
2023-01-06T07:09:04.469Z,91.74
2023-01-06T07:10:04.444Z,91.54
2023-01-06T07:11:04.425Z,91.64
2023-01-06T07:12:04.423Z,91.38
2023-01-06T07:13:05.140Z,91.64
2023-01-06T07:14:04.397Z,91.85
2023-01-06T07:15:04.416Z,92.77
2023-01-06T07:16:04.449Z,92.56
2023-01-06T07:17:04.390Z,92.77
2023-01-06T07:18:04.356Z,93.18
2023-01-06T07:19:04.340Z,93.63
2023-01-06T07:20:04.358Z,93.84
2023-01-06T07:21:04.469Z,93.43
2023-01-06T07:22:04.309Z,93.63
2023-01-06T07:23:04.296Z,93.59
2023-01-06T07:24:04.308Z,93.99
2023-01-06T07:25:04.283Z,93.93
2023-01-06T07:26:04.277Z,93.73
2023-01-06T07:27:04.254Z,93.93
2023-01-06T07:28:04.237Z,93.84
2023-01-06T07:29:04.237Z,93.63
2023-01-06T07:30:04.232Z,94.04
2023-01-06T07:31:04.251Z,94.04
2023-01-06T07:32:04.220Z,94.75
2023-01-06T07:33:04.178Z,94.96
2023-01-06T07:34:04.173Z,94.55
2023-01-06T07:35:04.157Z,94.96
2023-01-06T07:36:04.159Z,94.55
2023-01-06T07:37:04.263Z,94.65
2023-01-06T07:38:04.143Z,94.65
2023-01-06T07:39:04.116Z,94.96
2023-01-06T07:40:04.115Z,94.96
2023-01-06T07:41:04.116Z,94.85
2023-01-06T07:42:04.103Z,94.75
2023-01-06T07:43:04.076Z,94.14
2023-01-06T07:44:04.087Z,94.24
2023-01-06T07:45:04.060Z,94.04
2023-01-06T07:46:04.095Z,93.99
2023-01-06T07:47:04.032Z,93.89
2023-01-06T07:48:04.012Z,93.73
2023-01-06T07:49:04.027Z,94.04
2023-01-06T07:50:03.987Z,94.04
2023-01-06T07:51:04.004Z,93.73
2023-01-06T07:52:03.993Z,94.04
2023-01-06T07:53:04.071Z,93.93
2023-01-06T07:54:03.963Z,93.84
2023-01-06T07:55:03.989Z,93.73
2023-01-06T07:56:03.939Z,94.10
2023-01-06T07:57:03.948Z,94.14
2023-01-06T07:58:03.906Z,94.14
2023-01-06T07:59:03.898Z,93.73
2023-01-06T08:00:03.923Z,93.59
2023-01-06T08:01:03.872Z,93.69
2023-01-06T08:02:04.103Z,93.89
2023-01-06T08:03:03.973Z,93.07
2023-01-06T08:04:03.879Z,93.38
2023-01-06T08:05:03.831Z,93.48
2023-01-06T08:06:03.805Z,93.89
2023-01-06T08:07:03.797Z,93.89
2023-01-06T08:08:03.785Z,93.69
2023-01-06T08:09:03.905Z,93.99
2023-01-06T08:10:03.779Z,93.99
2023-01-06T08:11:03.751Z,94.04
2023-01-06T08:12:03.742Z,94.60
2023-01-06T08:13:03.737Z,94.96
2023-01-06T08:14:03.737Z,95.63
2023-01-06T08:15:03.707Z,95.06
2023-01-06T08:16:03.742Z,95.78
2023-01-06T08:17:03.681Z,95.98
2023-01-06T08:18:03.688Z,96.19
2023-01-06T08:19:03.700Z,95.88
2023-01-06T08:20:03.668Z,96.19
2023-01-06T08:21:03.662Z,96.29
2023-01-06T08:22:03.634Z,95.98
2023-01-06T08:23:03.710Z,96.19
2023-01-06T08:24:03.606Z,96.64
2023-01-06T08:25:03.730Z,96.59
2023-01-06T08:26:03.618Z,96.59
2023-01-06T08:27:03.572Z,96.54
2023-01-06T08:28:03.567Z,96.49
2023-01-06T08:29:03.566Z,96.19
2023-01-06T08:30:03.535Z,96.49
2023-01-06T08:31:03.658Z,96.08
2023-01-06T08:32:10.433Z,95.98
2023-01-06T08:33:04.520Z,95.98
2023-01-06T08:34:03.519Z,96.19
2023-01-06T08:35:03.487Z,96.29
2023-01-06T08:36:03.468Z,96.39
2023-01-06T08:37:03.476Z,97.31
2023-01-06T08:38:03.465Z,97.21
2023-01-06T08:39:03.461Z,97.11
2023-01-06T08:40:03.430Z,97.00
2023-01-06T08:41:03.533Z,97.52
2023-01-06T08:42:03.404Z,97.36
2023-01-06T08:43:03.409Z,97.66
2023-01-06T08:44:03.393Z,97.77
2023-01-06T08:45:03.372Z,98.24
2023-01-06T08:46:10.997Z,98.07
2023-01-06T08:47:03.365Z,98.24
2023-01-06T08:48:03.348Z,98.49
2023-01-06T08:49:03.332Z,98.24
2023-01-06T08:50:03.334Z,99.10
2023-01-06T08:51:03.303Z,98.90
2023-01-06T08:52:03.291Z,98.69
2023-01-06T08:53:03.283Z,99.30
2023-01-06T08:54:03.301Z,99.71
2023-01-06T08:55:03.256Z,99.41
2023-01-06T08:56:03.246Z,99.71
2023-01-06T08:57:03.354Z,99.91
2023-01-06T08:58:03.223Z,99.99
2023-01-06T08:59:03.219Z,99.99
2023-01-06T09:00:03.229Z,99.99
2023-01-06T09:01:03.204Z,99.99
2023-01-06T09:02:03.350Z,99.99
2023-01-06T09:03:03.173Z,99.99
2023-01-06T09:04:03.162Z,99.99
2023-01-06T09:05:03.202Z,99.99
2023-01-06T09:06:03.135Z,99.99
2023-01-06T09:07:03.122Z,99.99
2023-01-06T09:08:03.115Z,99.99
2023-01-06T09:09:03.112Z,99.99
2023-01-06T09:10:03.103Z,99.99
2023-01-06T09:11:03.094Z,99.99
2023-01-06T09:12:03.072Z,99.99
2023-01-06T09:13:03.173Z,99.99
2023-01-06T09:14:03.040Z,99.99
2023-01-06T09:15:03.047Z,99.99
2023-01-06T09:16:03.121Z,99.99
2023-01-06T09:17:03.010Z,99.99
2023-01-06T09:18:03.014Z,99.66
2023-01-06T09:19:02.986Z,99.91
2023-01-06T09:20:02.976Z,99.41
2023-01-06T09:21:02.985Z,99.82
2023-01-06T09:22:02.968Z,99.87
2023-01-06T09:23:02.956Z,98.74
2023-01-06T09:24:02.953Z,98.65
2023-01-06T09:25:02.924Z,98.65
2023-01-06T09:26:02.923Z,98.54
2023-01-06T09:27:02.905Z,98.44
2023-01-06T09:28:02.884Z,98.74
2023-01-06T09:29:03.021Z,98.60
2023-01-06T09:30:02.867Z,98.95
2023-01-06T09:31:02.905Z,98.49
2023-01-06T09:32:02.844Z,98.29
2023-01-06T09:33:02.831Z,98.44
2023-01-06T09:34:02.822Z,98.39
2023-01-06T09:35:02.807Z,98.33
2023-01-06T09:36:02.821Z,97.92
2023-01-06T09:37:02.787Z,98.24
2023-01-06T09:38:02.774Z,98.03
2023-01-06T09:39:02.798Z,98.39
2023-01-06T09:40:02.747Z,98.08
2023-01-06T09:41:02.741Z,98.03
2023-01-06T09:42:02.765Z,98.03
2023-01-06T09:43:02.722Z,98.08
2023-01-06T09:44:02.784Z,98.19
2023-01-06T09:45:02.841Z,97.78
2023-01-06T09:46:02.697Z,98.19
2023-01-06T09:47:02.671Z,98.19
2023-01-06T09:48:02.655Z,98.39
2023-01-06T09:49:02.665Z,98.24
2023-01-06T09:50:02.643Z,98.39
2023-01-06T09:51:02.650Z,98.33
2023-01-06T09:52:02.618Z,98.13
2023-01-06T09:53:02.604Z,98.24
2023-01-06T09:54:02.598Z,98.24
2023-01-06T09:55:02.597Z,98.39
2023-01-06T09:56:02.588Z,97.98
2023-01-06T09:57:02.564Z,97.98
2023-01-06T09:58:02.550Z,97.98
2023-01-06T09:59:02.536Z,98.29
2023-01-06T10:00:02.524Z,97.98
2023-01-06T10:01:02.640Z,98.08
2023-01-06T10:02:02.685Z,98.14
2023-01-06T10:03:02.498Z,98.24
2023-01-06T10:04:02.502Z,97.53
2023-01-06T10:05:02.481Z,97.33
2023-01-06T10:06:02.549Z,96.36
2023-01-06T10:07:02.473Z,95.95
2023-01-06T10:08:02.437Z,95.75
2023-01-06T10:09:02.421Z,95.75
2023-01-06T10:10:02.439Z,95.54
2023-01-06T10:11:02.405Z,95.75
2023-01-06T10:12:02.406Z,95.28
2023-01-06T10:13:02.384Z,95.28
2023-01-06T10:14:02.366Z,95.03
2023-01-06T10:15:02.380Z,95.34
2023-01-06T10:16:02.365Z,95.13
2023-01-06T10:17:02.520Z,94.97
2023-01-06T10:18:02.320Z,95.03
2023-01-06T10:19:02.318Z,95.48
2023-01-06T10:20:02.295Z,94.60
2023-01-06T10:21:02.289Z,94.92
2023-01-06T10:22:02.300Z,94.87
2023-01-06T10:23:02.290Z,94.92
2023-01-06T10:24:02.253Z,94.40
2023-01-06T10:25:02.261Z,94.92
2023-01-06T10:26:02.226Z,94.60
2023-01-06T10:27:02.252Z,94.92
2023-01-06T10:28:02.213Z,94.40
2023-01-06T10:29:02.199Z,95.32
2023-01-06T10:30:02.191Z,94.51
2023-01-06T10:31:02.218Z,94.81
2023-01-06T10:32:02.196Z,95.02
2023-01-06T10:33:02.191Z,94.92
2023-01-06T10:34:02.160Z,94.71
2023-01-06T10:35:02.137Z,94.10
2023-01-06T10:36:02.113Z,94.92
2023-01-06T10:37:02.146Z,95.02
2023-01-06T10:38:02.121Z,93.89
2023-01-06T10:39:02.085Z,93.89
2023-01-06T10:40:02.085Z,93.69
2023-01-06T10:41:02.060Z,93.69
2023-01-06T10:42:02.113Z,93.59
2023-01-06T10:43:02.051Z,93.69
2023-01-06T10:44:02.042Z,93.38
2023-01-06T10:45:02.167Z,93.28
2023-01-06T10:46:01.999Z,93.69
2023-01-06T10:47:01.995Z,93.59
2023-01-06T10:48:02.004Z,93.89
2023-01-06T10:49:02.088Z,93.28
2023-01-06T10:50:01.973Z,93.69
2023-01-06T10:51:01.965Z,93.38
2023-01-06T10:52:01.933Z,93.69
2023-01-06T10:53:01.939Z,93.69
2023-01-06T10:54:01.916Z,93.89
2023-01-06T10:55:01.904Z,93.79
2023-01-06T10:56:01.916Z,93.59
2023-01-06T10:57:01.904Z,93.38
2023-01-06T10:58:02.268Z,94.04
2023-01-06T10:59:01.855Z,94.14
2023-01-06T11:00:01.846Z,94.04
2023-01-06T11:01:01.914Z,93.89
2023-01-06T11:02:02.055Z,94.10
2023-01-06T11:03:14.367Z,94.20
2023-01-06T11:04:02.808Z,94.26
2023-01-06T11:05:01.922Z,93.79
2023-01-06T11:06:01.783Z,94.30
2023-01-06T11:07:01.831Z,93.69
2023-01-06T11:08:01.826Z,93.79
2023-01-06T11:09:01.748Z,93.79
2023-01-06T11:10:01.736Z,93.69
2023-01-06T11:11:01.725Z,93.79
2023-01-06T11:12:01.753Z,93.69
2023-01-06T11:13:01.708Z,94.20
2023-01-06T11:14:01.683Z,93.99
2023-01-06T11:15:01.686Z,93.99
2023-01-06T11:16:01.703Z,93.99
2023-01-06T11:17:01.667Z,94.10
2023-01-06T11:18:01.656Z,93.95
2023-01-06T11:19:01.655Z,93.65
2023-01-06T11:20:01.618Z,93.48
2023-01-06T11:21:01.723Z,92.56
2023-01-06T11:22:01.596Z,92.56
2023-01-06T11:23:01.610Z,92.56
2023-01-06T11:24:01.602Z,91.70
2023-01-06T11:25:01.584Z,91.39
2023-01-06T11:26:01.553Z,90.47
2023-01-06T11:27:01.585Z,90.68
2023-01-06T11:28:01.545Z,89.04
2023-01-06T11:29:01.600Z,89.31
2023-01-06T11:30:01.514Z,89.31
2023-01-06T11:31:01.497Z,88.90
2023-01-06T11:32:01.483Z,88.85
2023-01-06T11:33:01.498Z,88.65
2023-01-06T11:34:01.469Z,88.24
2023-01-06T11:35:01.451Z,87.29
2023-01-06T11:36:01.455Z,87.70
2023-01-06T11:37:01.553Z,86.98
2023-01-06T11:38:01.414Z,86.88
2023-01-06T11:39:01.427Z,86.63
2023-01-06T11:40:10.655Z,86.33
2023-01-06T11:41:02.385Z,85.92
2023-01-06T11:42:01.382Z,86.02
2023-01-06T11:43:01.364Z,85.92
2023-01-06T11:44:01.362Z,85.27
2023-01-06T11:45:01.337Z,85.77
2023-01-06T11:46:01.429Z,85.98
2023-01-06T11:47:01.364Z,84.96
2023-01-06T11:48:01.306Z,84.86
2023-01-06T11:49:01.305Z,84.51
2023-01-06T11:50:01.325Z,83.23
2023-01-06T11:51:01.284Z,82.68
2023-01-06T11:52:01.258Z,82.57
2023-01-06T11:53:01.372Z,82.78
2023-01-06T11:54:01.240Z,83.53
2023-01-06T11:55:01.229Z,83.84
2023-01-06T11:56:01.237Z,84.25
2023-01-06T11:57:01.204Z,84.39
2023-01-06T11:58:01.196Z,84.96
2023-01-06T11:59:01.176Z,85.00
2023-01-06T12:00:01.175Z,85.30
2023-01-06T12:01:01.154Z,85.27
2023-01-06T12:02:01.201Z,85.68
2023-01-06T12:03:01.198Z,85.27
2023-01-06T12:04:01.128Z,85.37
2023-01-06T12:05:01.121Z,85.98
2023-01-06T12:06:01.124Z,85.47
2023-01-06T12:07:01.087Z,85.47
2023-01-06T12:08:01.083Z,86.04
2023-01-06T12:09:01.215Z,85.94
2023-01-06T12:10:01.048Z,84.82
2023-01-06T12:11:01.070Z,84.61
2023-01-06T12:12:01.030Z,84.20
2023-01-06T12:13:01.021Z,81.76
2023-01-06T12:14:16.219Z,82.94
2023-01-06T12:15:03.548Z,82.84
2023-01-06T12:16:00.991Z,80.80
2023-01-06T12:17:01.112Z,80.84
2023-01-06T12:18:00.968Z,81.25
2023-01-06T12:19:01.077Z,81.35
2023-01-06T12:20:00.939Z,80.33
2023-01-06T12:21:00.940Z,80.27
2023-01-06T12:22:00.937Z,80.88
2023-01-06T12:23:00.915Z,81.49
2023-01-06T12:24:00.910Z,80.98
2023-01-06T12:25:01.013Z,81.29
2023-01-06T12:26:00.882Z,79.55
2023-01-06T12:27:00.877Z,80.07
2023-01-06T12:28:00.868Z,79.80
2023-01-06T12:29:00.852Z,79.59
2023-01-06T12:30:00.830Z,79.90
2023-01-06T12:31:00.912Z,80.91
2023-01-06T12:32:00.829Z,81.32
2023-01-06T12:33:00.800Z,81.23
2023-01-06T12:34:00.781Z,80.82
2023-01-06T12:35:00.796Z,80.82
2023-01-06T12:36:00.753Z,81.23
2023-01-06T12:37:00.746Z,81.43
2023-01-06T12:38:00.733Z,82.24
2023-01-06T12:39:00.731Z,81.73
2023-01-06T12:40:00.715Z,81.12
2023-01-06T12:41:00.826Z,81.32
2023-01-06T12:42:00.736Z,80.10
2023-01-06T12:43:00.694Z,80.24
2023-01-06T12:44:00.666Z,80.91
2023-01-06T12:45:00.674Z,80.61
2023-01-06T12:46:00.695Z,79.90
2023-01-06T12:47:00.725Z,79.80
2023-01-06T12:48:00.624Z,79.08
2023-01-06T12:49:00.621Z,77.69
2023-01-06T12:50:00.600Z,77.79
2023-01-06T12:51:00.583Z,78.09
2023-01-06T12:52:00.578Z,78.30